createdAt,value
2022-12-09T00:03:42.909Z,96.37
2022-12-09T00:08:45.437Z,96.23
2022-12-09T00:13:51.610Z,96.30
2022-12-09T00:18:53.694Z,96.49
2022-12-09T00:23:57.591Z,96.30
2022-12-09T00:29:00.135Z,96.33
2022-12-09T00:34:04.014Z,96.18
2022-12-09T00:39:05.961Z,96.58
2022-12-09T00:44:07.802Z,96.94
2022-12-09T00:49:10.965Z,96.98
2022-12-09T00:54:13.136Z,97.29
2022-12-09T00:59:14.968Z,97.20
2022-12-09T01:04:17.407Z,97.33
2022-12-09T01:09:19.203Z,97.54
2022-12-09T01:14:21.132Z,96.91
2022-12-09T01:19:23.025Z,97.16
2022-12-09T01:24:25.942Z,97.35
2022-12-09T01:29:27.673Z,96.93
2022-12-09T01:34:29.481Z,97.20
2022-12-09T01:39:31.413Z,96.92
2022-12-09T01:44:34.552Z,97.25
2022-12-09T01:49:43.213Z,97.51
2022-12-09T01:54:48.472Z,96.99
2022-12-09T01:59:52.799Z,97.17
2022-12-09T02:04:55.365Z,97.32
2022-12-09T02:09:58.122Z,97.56
2022-12-09T02:15:19.687Z,97.46
2022-12-09T02:20:38.845Z,97.15
2022-12-09T02:25:48.742Z,97.60
2022-12-09T02:31:09.932Z,97.65
2022-12-09T02:36:17.551Z,97.64
2022-12-09T02:41:27.676Z,97.86
2022-12-09T02:46:31.677Z,97.72
2022-12-09T02:51:36.632Z,97.74
2022-12-09T02:56:41.677Z,97.53
2022-12-09T03:01:57.608Z,97.36
2022-12-09T03:07:20.062Z,97.41
2022-12-09T03:12:24.711Z,97.18
2022-12-09T03:17:36.096Z,97.30
2022-12-09T03:22:42.556Z,96.90
2022-12-09T03:27:57.173Z,96.69
2022-12-09T03:32:59.505Z,97.01
2022-12-09T03:38:05.492Z,97.11
2022-12-09T03:43:22.896Z,97.10
2022-12-09T03:48:25.078Z,96.90
2022-12-09T03:53:50.405Z,97.63
2022-12-09T03:58:54.687Z,97.09
2022-12-09T04:03:57.626Z,97.25
2022-12-09T04:09:02.548Z,97.17
2022-12-09T04:14:04.911Z,96.88
2022-12-09T04:19:07.105Z,96.32
2022-12-09T04:24:10.082Z,96.35
2022-12-09T04:29:12.575Z,96.38
2022-12-09T04:34:14.288Z,96.65
2022-12-09T04:39:15.880Z,96.79
2022-12-09T04:44:17.651Z,96.75
2022-12-09T04:49:19.311Z,96.43
2022-12-09T04:54:22.329Z,96.35
2022-12-09T04:59:24.409Z,96.10
2022-12-09T05:04:26.420Z,95.47
2022-12-09T05:09:28.614Z,95.56
2022-12-09T05:14:30.772Z,95.54
2022-12-09T05:19:32.755Z,95.68
2022-12-09T05:24:34.870Z,95.23
2022-12-09T05:29:36.919Z,95.29
2022-12-09T05:34:39.593Z,95.39
2022-12-09T05:39:42.594Z,95.59
2022-12-09T05:44:44.959Z,95.72
2022-12-09T05:49:46.930Z,95.83
2022-12-09T05:54:48.749Z,96.09
2022-12-09T05:59:50.794Z,96.27
2022-12-09T06:04:52.937Z,96.20
2022-12-09T06:09:54.822Z,95.96
2022-12-09T06:14:56.684Z,95.94
2022-12-09T06:19:58.640Z,95.61
2022-12-09T06:25:00.271Z,95.74
2022-12-09T06:30:03.335Z,95.75
2022-12-09T06:35:07.603Z,95.56
2022-12-09T06:40:11.033Z,95.74
2022-12-09T06:45:13.335Z,95.58
2022-12-09T06:50:16.245Z,95.76
2022-12-09T06:55:18.158Z,95.47
2022-12-09T07:00:20.314Z,95.24
2022-12-09T07:05:22.769Z,96.08
2022-12-09T07:10:25.120Z,96.29
2022-12-09T07:15:27.084Z,96.21
2022-12-09T07:20:29.109Z,96.33
2022-12-09T07:25:31.321Z,96.66
2022-12-09T07:30:33.260Z,96.70
2022-12-09T07:35:35.478Z,96.90
2022-12-09T07:40:40.594Z,97.09
2022-12-09T07:45:42.617Z,96.97
2022-12-09T07:50:44.757Z,97.33
2022-12-09T07:55:46.659Z,97.38
2022-12-09T08:00:48.526Z,97.92
2022-12-09T08:05:50.954Z,98.40
2022-12-09T08:10:53.211Z,99.19
2022-12-09T08:15:55.243Z,99.35
2022-12-09T08:20:57.374Z,99.71
2022-12-09T08:25:59.411Z,99.67
2022-12-09T08:31:11.602Z,99.76
2022-12-09T08:36:20.424Z,99.19
2022-12-09T08:41:38.452Z,99.44
2022-12-09T08:46:42.884Z,99.41
2022-12-09T08:51:45.542Z,99.45
2022-12-09T08:56:49.313Z,99.51
2022-12-09T09:01:51.590Z,100.00
2022-12-09T09:06:53.755Z,100.00
2022-12-09T09:11:56.045Z,100.00
2022-12-09T09:16:58.361Z,100.00
2022-12-09T09:22:00.666Z,100.00
2022-12-09T09:27:02.810Z,100.00
2022-12-09T09:32:04.904Z,100.00
2022-12-09T09:37:06.875Z,100.00
2022-12-09T09:42:17.147Z,100.00
2022-12-09T09:47:38.290Z,100.00
2022-12-09T09:52:42.211Z,100.00
2022-12-09T09:57:50.472Z,100.00
2022-12-09T10:03:09.811Z,100.00
2022-12-09T10:08:56.157Z,100.00
2022-12-09T10:14:17.450Z,100.00
2022-12-09T10:19:40.098Z,100.00
2022-12-09T10:24:50.194Z,100.00
2022-12-09T10:30:02.527Z,100.00
2022-12-09T10:35:22.700Z,100.00
2022-12-09T10:40:35.572Z,100.00
2022-12-09T10:46:16.748Z,100.00
2022-12-09T10:51:17.653Z,100.00
2022-12-09T10:56:25.935Z,100.00
2022-12-09T11:01:28.001Z,100.00
2022-12-09T11:06:37.288Z,100.00
2022-12-09T11:11:45.382Z,100.00
2022-12-09T11:16:47.486Z,100.00
2022-12-09T11:21:49.352Z,100.00
2022-12-09T11:26:51.616Z,100.00
2022-12-09T11:31:53.356Z,100.00
2022-12-09T11:36:59.008Z,100.00
2022-12-09T11:42:17.561Z,100.00
2022-12-09T11:47:36.505Z,100.00
2022-12-09T11:52:46.987Z,100.00
2022-12-09T11:57:55.512Z,100.00
2022-12-09T12:03:04.478Z,100.00
2022-12-09T12:08:43.546Z,100.00
2022-12-09T12:13:48.008Z,100.00
2022-12-09T12:18:59.699Z,100.00
2022-12-09T12:24:42.798Z,100.00
2022-12-09T12:30:04.327Z,100.00
2022-12-09T12:35:20.741Z,100.00
2022-12-09T12:40:31.464Z,100.00
2022-12-09T12:46:17.960Z,100.00
2022-12-09T12:51:24.479Z,100.00
2022-12-09T12:56:36.838Z,100.00
2022-12-09T13:02:10.704Z,100.00
2022-12-09T13:07:35.648Z,100.00
2022-12-09T13:12:56.931Z,100.00
2022-12-09T13:18:11.692Z,100.00
2022-12-09T13:23:34.568Z,100.00
2022-12-09T13:28:51.615Z,100.00
2022-12-09T13:34:00.574Z,100.00
2022-12-09T13:39:02.201Z,100.00
2022-12-09T13:44:13.460Z,100.00
2022-12-09T13:49:20.491Z,100.00
2022-12-09T13:54:25.066Z,100.00
2022-12-09T13:59:48.785Z,100.00
2022-12-09T14:05:05.765Z,100.00
2022-12-09T14:10:47.762Z,100.00
2022-12-09T14:16:08.313Z,100.00
2022-12-09T14:21:19.090Z,100.00
2022-12-09T14:26:43.530Z,100.00
2022-12-09T14:31:50.191Z,100.00
2022-12-09T14:37:01.306Z,100.00
2022-12-09T14:42:18.424Z,100.00
2022-12-09T14:47:28.099Z,100.00
2022-12-09T14:52:33.273Z,100.00
2022-12-09T14:57:42.403Z,100.00
2022-12-09T15:03:22.992Z,100.00
2022-12-09T15:08:30.696Z,100.00
2022-12-09T15:13:34.558Z,100.00
2022-12-09T15:18:39.133Z,100.00
2022-12-09T15:23:44.573Z,100.00
2022-12-09T15:28:48.587Z,100.00
2022-12-09T15:33:53.087Z,100.00
2022-12-09T15:38:57.233Z,100.00
2022-12-09T15:44:05.720Z,100.00
2022-12-09T15:49:11.999Z,100.00
2022-12-09T15:54:20.244Z,100.00
2022-12-09T15:59:25.272Z,100.00
2022-12-09T16:04:31.962Z,100.00
2022-12-09T16:09:33.829Z,100.00
2022-12-09T16:14:44.116Z,100.00
2022-12-09T16:19:45.704Z,100.00
2022-12-09T16:25:16.584Z,100.00
2022-12-09T16:30:23.674Z,100.00
2022-12-09T16:35:27.343Z,100.00
2022-12-09T16:40:32.714Z,100.00
2022-12-09T16:45:38.262Z,100.00
2022-12-09T16:50:42.510Z,100.00
2022-12-09T16:55:50.137Z,100.00
2022-12-09T17:00:52.313Z,100.00
2022-12-09T17:05:53.912Z,100.00
2022-12-09T17:10:55.491Z,100.00
2022-12-09T17:15:58.587Z,100.00
2022-12-09T17:21:08.361Z,100.00
2022-12-09T17:26:13.108Z,100.00
2022-12-09T17:31:17.969Z,100.00
2022-12-09T17:36:19.640Z,100.00
2022-12-09T17:41:23.650Z,100.00
2022-12-09T17:46:25.450Z,100.00
2022-12-09T17:51:31.022Z,100.00
2022-12-09T17:56:38.476Z,100.00
2022-12-09T18:01:41.170Z,100.00
2022-12-09T18:06:45.110Z,100.00
2022-12-09T18:11:47.038Z,100.00
2022-12-09T18:16:49.267Z,100.00
2022-12-09T18:21:53.707Z,100.00
2022-12-09T18:26:57.123Z,100.00
2022-12-09T18:31:58.787Z,100.00
2022-12-09T18:37:00.931Z,100.00
2022-12-09T18:42:03.428Z,100.00
2022-12-09T18:47:05.051Z,100.00
2022-12-09T18:52:06.685Z,100.00
2022-12-09T18:57:08.268Z,100.00
2022-12-09T19:02:11.728Z,100.00
2022-12-09T19:07:14.292Z,100.00
2022-12-09T19:12:46.032Z,100.00
2022-12-09T19:17:39.970Z,100.00
2022-12-09T19:22:42.005Z,100.00
2022-12-09T19:27:44.988Z,100.00
2022-12-09T19:32:53.923Z,100.00
2022-12-09T19:38:00.914Z,100.00
2022-12-09T19:43:03.160Z,100.00
2022-12-09T19:48:04.871Z,100.00
2022-12-09T19:53:06.472Z,100.00
2022-12-09T19:58:09.024Z,100.00
2022-12-09T20:03:10.744Z,100.00
2022-12-09T20:08:12.720Z,100.00
2022-12-09T20:13:16.320Z,100.00
2022-12-09T20:18:17.955Z,100.00
2022-12-09T20:23:19.556Z,100.00
2022-12-09T20:28:21.132Z,100.00
2022-12-09T20:33:22.693Z,100.00
2022-12-09T20:38:24.857Z,100.00
2022-12-09T20:43:26.501Z,100.00
2022-12-09T20:48:28.076Z,100.00
2022-12-09T20:53:29.653Z,100.00
2022-12-09T20:58:31.600Z,100.00
2022-12-09T21:03:33.840Z,100.00
2022-12-09T21:08:36.033Z,100.00
2022-12-09T21:13:40.481Z,100.00
2022-12-09T21:18:42.833Z,100.00
2022-12-09T21:23:44.975Z,100.00
2022-12-09T21:28:47.298Z,100.00
2022-12-09T21:33:51.773Z,100.00
2022-12-09T21:38:55.012Z,100.00
2022-12-09T21:43:57.891Z,100.00
2022-12-09T21:49:03.910Z,100.00
2022-12-09T21:54:06.617Z,100.00
2022-12-09T21:59:09.760Z,100.00
2022-12-09T22:04:13.484Z,100.00
2022-12-09T22:09:16.503Z,100.00
2022-12-09T22:14:18.472Z,100.00
2022-12-09T22:19:21.111Z,100.00
2022-12-09T22:24:22.787Z,100.00
2022-12-09T22:29:24.433Z,100.00
2022-12-09T22:34:26.019Z,100.00
2022-12-09T22:39:27.615Z,100.00
2022-12-09T22:44:29.246Z,100.00
2022-12-09T22:49:30.839Z,100.00
2022-12-09T22:54:32.446Z,100.00
2022-12-09T22:59:38.375Z,100.00
2022-12-09T23:04:42.901Z,100.00
2022-12-09T23:09:44.473Z,100.00
2022-12-09T23:14:46.171Z,100.00
2022-12-09T23:19:47.846Z,100.00
2022-12-09T23:24:49.427Z,100.00
2022-12-09T23:29:51.063Z,100.00
2022-12-09T23:34:52.876Z,100.00
2022-12-09T23:39:55.452Z,100.00
2022-12-09T23:44:57.028Z,100.00
2022-12-09T23:49:58.676Z,100.00
2022-12-09T23:55:04.277Z,100.00
